Skip Navigation Links Skip Navigation Links

Current Weather

Point Lay Lrrs, Point Lay, Alaska

For information only: do not use for flight planning or navigation.
Latest weather
Observation time Thursday, December 2, 2021 11:56 PM AKST
Local time Friday, December 3, 2021 12:21 AM AKST
Flight conditions Visual Meteorological Conditions
Winds
Wind direction East-Southeast (110°)
Wind speed 10 mph
Visibility 10 mi.
Sky condition
Ceiling unlimited
Cloud layer few clouds 11,000 ft.
Temperature -9°F
Dewpoint -14°F
Altimeter 30.19 in.Hg
Pressure change last 3 hours0.09 in.Hg
Pressure falling more slowly
Derived measurements
Relative humidity 78%
Wind chill -27°F
Density altitude -5147 ft.
Sea-level pressure 30.21 in.Hg
Remarks
Fully automated report.
System requires maintenance.
Automated weather observing station with precipitation discriminator.
Freezing rain sensor not operating.
Precipitation sensor not operating.
METAR PPIZ 030856Z AUTO 11009KT 10SM FEW110 M23/M26 A3019 RMK AO2 SLP229 6//// T12281256 56032 FZRANO PNO $

Settings

Location code

InnerDrive.Weather 4.0.6770.0 Release CLR 4.0.30319.42000
Copyright ©2018 Inner Drive Technology. All rights reserved. Portions Copyright ©1986-2018 David Braverman.

Find weather

Site navigation


Skip Navigation Links

Place info

Page info

PayPal - The safer, easier way to pay online!

Return home.

Copyright ©2021 Inner Drive Technology. Purveyors of fine, hand-crafted computer software. Page printed 2021-12-03T09:21:57 UTC.